Time;durP1;ratioP1;P1;durP2;ratioP2;P2;SDS_P1;SDS_P2;PMS_P1;PMS_P2;Temp;Humidity;BMP_temperature;BMP_pressure;BME280_temperature;BME280_humidity;BME280_pressure;Samples;Min_cycle;Max_cycle;Signal;HPM_P1;HPM_P2
2022/05/28 00:01:23;;;;;;;8.88;3.70;;;;;;;;;;5020882;28;20033;-78
2022/05/28 00:03:53;;;;;;;8.10;3.70;;;;;;;;;;5020694;28;20030;-76
2022/05/28 00:06:21;;;;;;;8.02;3.97;;;;;;;;;;5012033;28;20404;-76
2022/05/28 00:08:48;;;;;;;9.65;3.85;;;;;;;;;;5021400;28;20384;-77
2022/05/28 00:11:15;;;;;;;8.10;3.75;;;;;;;;;;5018342;28;20089;-76
2022/05/28 00:13:42;;;;;;;9.50;3.83;;;;;;;;;;5016882;28;20025;-76
2022/05/28 00:16:08;;;;;;;10.75;3.92;;;;;;;;;;5015819;28;20485;-77
2022/05/28 00:18:37;;;;;;;11.45;3.50;;;;;;;;;;5019495;28;20026;-77
2022/05/28 00:21:03;;;;;;;15.93;4.90;;;;;;;;;;5019740;28;20236;-78
2022/05/28 00:23:29;;;;;;;11.98;4.68;;;;;;;;;;5017641;28;20032;-78
2022/05/28 00:25:55;;;;;;;15.25;6.40;;;;;;;;;;5021842;28;20120;-77
2022/05/28 00:28:21;;;;;;;16.23;7.30;;;;;;;;;;5018520;28;20034;-78
2022/05/28 00:30:48;;;;;;;20.77;7.25;;;;;;;;;;5029360;28;20036;-77
2022/05/28 00:33:14;;;;;;;9.80;5.95;;;;;;;;;;5021677;28;20812;-77
2022/05/28 00:35:40;;;;;;;12.40;5.32;;;;;;;;;;5025305;28;20037;-77
2022/05/28 00:38:06;;;;;;;9.75;4.80;;;;;;;;;;5027617;28;20030;-77
2022/05/28 00:40:32;;;;;;;10.13;4.03;;;;;;;;;;5020300;28;20041;-77
2022/05/28 00:43:03;;;;;;;10.50;4.00;;;;;;;;;;5021695;28;20115;-76
2022/05/28 00:45:30;;;;;;;13.73;3.70;;;;;;;;;;5021685;28;20029;-76
2022/05/28 00:47:58;;;;;;;8.27;4.88;;;;;;;;;;5020388;28;20041;-77
2022/05/28 00:50:24;;;;;;;8.27;3.90;;;;;;;;;;5022337;28;20030;-77
2022/05/28 00:52:50;;;;;;;11.07;3.92;;;;;;;;;;5019867;28;20060;-77
2022/05/28 00:55:17;;;;;;;10.55;4.57;;;;;;;;;;5017092;28;20092;-76
2022/05/28 00:57:44;;;;;;;8.68;3.75;;;;;;;;;;5017493;28;20041;-76
2022/05/28 01:00:13;;;;;;;10.57;3.97;;;;;;;;;;5018070;28;20391;-77
2022/05/28 01:02:52;;;;;;;9.68;3.60;;;;;;;;;;5018274;28;20057;-76
2022/05/28 01:05:27;;;;;;;10.52;3.50;;;;;;;;;;5021274;28;20468;-76
2022/05/28 01:07:53;;;;;;;;;;;;;;;;;;5011967;28;20523;-76
2022/05/28 01:10:21;;;;;;;;;;;;;;;;;;5028658;28;19952;-76
2022/05/28 01:12:53;;;;;;;9.68;3.85;;;;;;;;;;5014439;28;19909;-77
2022/05/28 01:15:24;;;;;;;6.53;3.53;;;;;;;;;;5017455;28;20034;-76
2022/05/28 01:18:01;;;;;;;7.25;3.33;;;;;;;;;;5023024;28;20036;-77
2022/05/28 01:20:32;;;;;;;7.57;3.25;;;;;;;;;;5013368;28;20030;-76
2022/05/28 01:23:13;;;;;;;9.55;3.50;;;;;;;;;;5019958;28;20034;-78
2022/05/28 01:25:48;;;;;;;9.80;3.85;;;;;;;;;;5028683;28;20029;-76
2022/05/28 01:28:16;;;;;;;7.88;3.00;;;;;;;;;;5022843;28;20034;-76
2022/05/28 01:30:43;;;;;;;12.40;3.97;;;;;;;;;;5008027;28;20018;-76
2022/05/28 01:33:10;;;;;;;11.05;3.92;;;;;;;;;;5024273;28;20069;-76
2022/05/28 01:35:36;;;;;;;8.35;3.83;;;;;;;;;;5021285;28;20034;-77
2022/05/28 01:38:03;;;;;;;7.88;3.20;;;;;;;;;;5013926;28;20065;-75
2022/05/28 01:40:30;;;;;;;8.80;3.25;;;;;;;;;;5019051;28;20034;-75
2022/05/28 01:42:57;;;;;;;8.40;4.03;;;;;;;;;;5013496;28;20050;-76
2022/05/28 01:45:26;;;;;;;9.63;3.28;;;;;;;;;;5010945;28;20026;-75
2022/05/28 01:47:53;;;;;;;9.20;4.45;;;;;;;;;;5014375;28;20061;-77
2022/05/28 01:50:21;;;;;;;11.50;3.60;;;;;;;;;;5011653;28;20030;-76
2022/05/28 01:52:48;;;;;;;6.90;2.90;;;;;;;;;;5018523;28;20033;-76
2022/05/28 01:55:14;;;;;;;6.93;4.10;;;;;;;;;;5024262;28;20525;-76
2022/05/28 01:57:41;;;;;;;8.95;3.42;;;;;;;;;;5024589;28;20158;-76
2022/05/28 02:00:09;;;;;;;10.60;4.35;;;;;;;;;;5016256;28;20037;-76
2022/05/28 02:02:36;;;;;;;6.18;3.47;;;;;;;;;;5018626;28;20074;-76
2022/05/28 02:05:02;;;;;;;8.38;3.20;;;;;;;;;;5026135;28;20033;-77
2022/05/28 02:07:28;;;;;;;8.98;3.97;;;;;;;;;;5017793;28;20026;-76
2022/05/28 02:09:58;;;;;;;9.27;3.17;;;;;;;;;;5017798;28;20018;-77
2022/05/28 02:12:26;;;;;;;13.80;3.95;;;;;;;;;;5009696;28;20300;-76
2022/05/28 02:15:02;;;;;;;6.80;4.28;;;;;;;;;;5018486;28;20032;-78
2022/05/28 02:17:39;;;;;;;12.75;5.03;;;;;;;;;;5014850;28;20040;-76
2022/05/28 02:20:05;;;;;;;8.50;3.88;;;;;;;;;;5019076;28;20141;-77
2022/05/28 02:23:04;;;;;;;7.05;4.22;;;;;;;;;;5017971;28;20034;-75
2022/05/28 02:25:34;;;;;;;10.77;3.63;;;;;;;;;;5008566;28;20625;-76
2022/05/28 02:28:02;;;;;;;8.38;3.50;;;;;;;;;;5012024;28;20037;-77
2022/05/28 02:30:28;;;;;;;9.68;4.57;;;;;;;;;;5019595;28;20034;-77
2022/05/28 02:33:04;;;;;;;8.65;3.88;;;;;;;;;;5013019;28;20030;-76
2022/05/28 02:35:30;;;;;;;8.98;3.50;;;;;;;;;;5028951;28;20022;-76
2022/05/28 02:37:57;;;;;;;7.60;3.33;;;;;;;;;;5016995;28;20109;-74
2022/05/28 02:40:23;;;;;;;9.73;4.13;;;;;;;;;;5018052;28;20038;-76
2022/05/28 02:42:49;;;;;;;8.88;3.28;;;;;;;;;;5029461;28;20030;-75
2022/05/28 02:45:16;;;;;;;10.20;4.13;;;;;;;;;;5007627;28;20054;-76
2022/05/28 02:47:44;;;;;;;8.38;3.13;;;;;;;;;;5014240;28;20053;-75
2022/05/28 02:50:10;;;;;;;6.45;3.80;;;;;;;;;;5010829;28;20029;-75
2022/05/28 02:52:36;;;;;;;9.98;3.53;;;;;;;;;;5017104;28;20105;-76
2022/05/28 02:55:03;;;;;;;11.02;4.30;;;;;;;;;;5015076;28;20051;-76
2022/05/28 02:57:29;;;;;;;7.47;4.03;;;;;;;;;;5021254;28;20034;-77
2022/05/28 02:59:56;;;;;;;14.23;4.10;;;;;;;;;;5011890;28;20044;-76
2022/05/28 03:02:22;;;;;;;11.27;3.55;;;;;;;;;;5014324;28;20022;-76
2022/05/28 03:04:48;;;;;;;12.77;3.25;;;;;;;;;;5018707;28;20022;-77
2022/05/28 03:07:14;;;;;;;7.72;3.72;;;;;;;;;;5020361;28;20187;-77
2022/05/28 03:09:40;;;;;;;7.63;3.22;;;;;;;;;;5012569;28;20053;-78
2022/05/28 03:12:07;;;;;;;7.85;3.55;;;;;;;;;;5017197;28;20026;-77
2022/05/28 03:14:33;;;;;;;9.57;4.72;;;;;;;;;;5014433;28;20355;-77
2022/05/28 03:16:59;;;;;;;9.55;3.60;;;;;;;;;;5019929;28;20030;-75
2022/05/28 03:19:25;;;;;;;9.07;3.30;;;;;;;;;;5016397;28;20053;-77
2022/05/28 03:21:51;;;;;;;7.00;3.10;;;;;;;;;;5032227;28;20152;-76
2022/05/28 03:24:17;;;;;;;11.38;3.75;;;;;;;;;;5024848;28;20037;-76
2022/05/28 03:26:43;;;;;;;7.35;3.20;;;;;;;;;;5019351;28;20022;-75
2022/05/28 03:29:09;;;;;;;10.48;3.53;;;;;;;;;;5019654;28;20415;-76
2022/05/28 03:31:35;;;;;;;9.02;3.60;;;;;;;;;;5023104;28;20024;-75
2022/05/28 03:34:01;;;;;;;6.38;3.28;;;;;;;;;;5024518;28;20049;-75
2022/05/28 03:36:28;;;;;;;6.47;3.60;;;;;;;;;;5020736;28;20034;-75
2022/05/28 03:38:54;;;;;;;8.52;3.40;;;;;;;;;;5027302;28;20468;-76
2022/05/28 03:41:21;;;;;;;4.55;3.35;;;;;;;;;;5021065;28;20101;-76
2022/05/28 03:43:48;;;;;;;6.60;3.30;;;;;;;;;;5025540;28;20548;-75
2022/05/28 03:46:22;;;;;;;16.27;4.20;;;;;;;;;;5021222;28;20077;-76
2022/05/28 03:48:48;;;;;;;10.95;3.40;;;;;;;;;;5022291;28;20102;-75
2022/05/28 03:51:14;;;;;;;8.20;3.72;;;;;;;;;;5025723;28;20029;-77
2022/05/28 03:53:40;;;;;;;12.18;4.00;;;;;;;;;;5020940;28;20093;-76
2022/05/28 03:56:07;;;;;;;8.23;4.82;;;;;;;;;;5013095;28;20030;-76
2022/05/28 03:58:33;;;;;;;5.85;3.45;;;;;;;;;;5028254;28;20050;-76
2022/05/28 04:00:59;;;;;;;11.25;3.67;;;;;;;;;;5033995;28;20088;-76
2022/05/28 04:03:25;;;;;;;6.82;3.78;;;;;;;;;;5025912;28;20029;-75
2022/05/28 04:05:51;;;;;;;9.27;3.97;;;;;;;;;;5022370;28;20037;-77
2022/05/28 04:08:17;;;;;;;9.57;4.28;;;;;;;;;;5024656;28;20056;-76
2022/05/28 04:10:43;;;;;;;9.98;3.55;;;;;;;;;;5021464;28;20026;-75
2022/05/28 04:13:09;;;;;;;8.70;4.00;;;;;;;;;;5022048;28;20030;-76
2022/05/28 04:15:35;;;;;;;7.25;3.45;;;;;;;;;;5021966;28;20085;-76
2022/05/28 04:18:01;;;;;;;14.07;3.47;;;;;;;;;;5013630;28;20030;-76
2022/05/28 04:20:28;;;;;;;8.52;4.40;;;;;;;;;;5012951;28;20029;-75
2022/05/28 04:22:54;;;;;;;7.40;4.00;;;;;;;;;;5022611;28;20076;-76
2022/05/28 04:25:20;;;;;;;7.07;3.80;;;;;;;;;;5027746;28;20037;-75
2022/05/28 04:27:46;;;;;;;11.05;4.10;;;;;;;;;;5016991;28;20053;-75
2022/05/28 04:30:13;;;;;;;9.40;4.40;;;;;;;;;;5016164;28;20077;-76
2022/05/28 04:32:39;;;;;;;10.32;4.03;;;;;;;;;;5026439;28;20022;-76
2022/05/28 04:35:05;;;;;;;7.50;3.42;;;;;;;;;;5018921;28;20627;-76
2022/05/28 04:37:31;;;;;;;11.07;4.03;;;;;;;;;;5020105;28;20036;-75
2022/05/28 04:39:57;;;;;;;9.85;3.53;;;;;;;;;;5016534;28;20086;-75
2022/05/28 04:42:23;;;;;;;7.32;3.55;;;;;;;;;;5014936;28;20045;-75
2022/05/28 04:44:49;;;;;;;7.50;4.10;;;;;;;;;;5021877;28;20104;-76
2022/05/28 04:47:15;;;;;;;6.03;3.47;;;;;;;;;;5016867;28;20056;-75
2022/05/28 04:49:41;;;;;;;5.80;3.45;;;;;;;;;;5016791;28;20025;-75
2022/05/28 04:52:08;;;;;;;8.05;4.38;;;;;;;;;;5020030;28;20022;-76
2022/05/28 04:54:34;;;;;;;8.73;3.30;;;;;;;;;;5016242;28;20034;-76
2022/05/28 04:57:00;;;;;;;7.97;3.40;;;;;;;;;;5019015;28;20041;-76
2022/05/28 04:59:26;;;;;;;5.88;3.17;;;;;;;;;;5016364;28;20529;-75
2022/05/28 05:01:52;;;;;;;7.72;3.38;;;;;;;;;;5015962;28;20105;-76
2022/05/28 05:04:18;;;;;;;6.47;3.38;;;;;;;;;;5021839;28;20100;-74
2022/05/28 05:06:44;;;;;;;5.47;3.17;;;;;;;;;;5016801;28;20033;-75
2022/05/28 05:09:10;;;;;;;4.20;3.10;;;;;;;;;;5015975;28;20035;-75
2022/05/28 05:11:36;;;;;;;7.40;3.20;;;;;;;;;;5034408;28;20022;-75
2022/05/28 05:14:03;;;;;;;9.02;3.45;;;;;;;;;;5020483;28;20083;-74
2022/05/28 05:16:29;;;;;;;6.35;3.63;;;;;;;;;;5018872;28;20042;-75
2022/05/28 05:18:55;;;;;;;7.40;3.53;;;;;;;;;;5023018;28;20030;-75
2022/05/28 05:21:21;;;;;;;9.93;4.43;;;;;;;;;;5017978;28;20072;-76
2022/05/28 05:23:47;;;;;;;9.48;3.60;;;;;;;;;;5018650;28;20034;-75
2022/05/28 05:26:14;;;;;;;7.75;4.40;;;;;;;;;;5025860;28;20033;-74
2022/05/28 05:28:40;;;;;;;7.95;3.85;;;;;;;;;;5023996;28;20032;-75
2022/05/28 05:31:06;;;;;;;7.85;3.33;;;;;;;;;;5020138;28;20034;-76
2022/05/28 05:33:32;;;;;;;6.07;3.17;;;;;;;;;;5021503;28;20048;-75
2022/05/28 05:35:58;;;;;;;5.32;3.53;;;;;;;;;;5019047;28;20030;-76
2022/05/28 05:38:24;;;;;;;6.25;3.55;;;;;;;;;;5012010;28;20072;-76
2022/05/28 05:40:51;;;;;;;6.20;3.55;;;;;;;;;;5016804;28;20044;-76
2022/05/28 05:43:18;;;;;;;8.05;3.70;;;;;;;;;;5012513;28;20037;-75
2022/05/28 05:45:50;;;;;;;8.50;3.67;;;;;;;;;;5019340;28;20042;-76
2022/05/28 05:48:17;;;;;;;5.53;3.40;;;;;;;;;;5015804;28;20033;-75
2022/05/28 05:50:43;;;;;;;9.82;3.67;;;;;;;;;;5016995;28;20052;-75
2022/05/28 05:53:09;;;;;;;9.63;3.95;;;;;;;;;;5026618;28;20022;-76
2022/05/28 05:55:35;;;;;;;6.25;3.83;;;;;;;;;;5025294;28;20029;-76
2022/05/28 05:58:01;;;;;;;8.38;3.53;;;;;;;;;;5016614;28;20066;-76
2022/05/28 06:00:27;;;;;;;9.00;4.80;;;;;;;;;;5019462;28;20030;-76
2022/05/28 06:02:53;;;;;;;9.88;3.97;;;;;;;;;;5023269;28;20045;-76
2022/05/28 06:05:19;;;;;;;9.35;3.97;;;;;;;;;;5022515;28;20403;-76
2022/05/28 06:07:45;;;;;;;8.63;3.70;;;;;;;;;;5020598;28;20034;-77
2022/05/28 06:10:12;;;;;;;8.68;3.50;;;;;;;;;;5019896;28;20101;-76
2022/05/28 06:12:38;;;;;;;9.80;4.00;;;;;;;;;;5027052;28;20029;-76
2022/05/28 06:15:04;;;;;;;9.50;4.15;;;;;;;;;;5014818;28;20022;-76
2022/05/28 06:17:33;;;;;;;6.72;3.47;;;;;;;;;;5013043;28;20360;-77
2022/05/28 06:19:59;;;;;;;9.48;3.58;;;;;;;;;;5019957;28;20022;-76
2022/05/28 06:22:25;;;;;;;7.53;3.65;;;;;;;;;;5014753;28;20102;-76
2022/05/28 06:24:51;;;;;;;8.23;3.95;;;;;;;;;;5018789;28;20103;-76
2022/05/28 06:27:17;;;;;;;8.60;3.92;;;;;;;;;;5022077;28;20033;-76
2022/05/28 06:29:43;;;;;;;10.30;4.47;;;;;;;;;;5013064;28;20022;-76
2022/05/28 06:32:09;;;;;;;10.23;3.75;;;;;;;;;;5021552;28;20080;-77
2022/05/28 06:34:36;;;;;;;10.43;3.70;;;;;;;;;;5018143;28;20122;-76
2022/05/28 06:37:02;;;;;;;11.07;3.70;;;;;;;;;;5019574;28;20076;-77
2022/05/28 06:39:28;;;;;;;7.20;3.20;;;;;;;;;;5015895;28;20033;-76
2022/05/28 06:41:54;;;;;;;8.00;3.15;;;;;;;;;;5018693;28;20026;-78
2022/05/28 06:44:20;;;;;;;10.40;4.30;;;;;;;;;;5016722;28;20042;-76
2022/05/28 06:46:46;;;;;;;9.68;3.30;;;;;;;;;;5013771;28;20046;-77
2022/05/28 06:49:12;;;;;;;9.32;3.05;;;;;;;;;;5024920;28;20145;-76
2022/05/28 06:51:39;;;;;;;9.48;3.67;;;;;;;;;;5010879;28;20030;-77
2022/05/28 06:54:06;;;;;;;13.65;3.72;;;;;;;;;;5010949;28;20022;-77
2022/05/28 06:56:32;;;;;;;10.13;4.47;;;;;;;;;;5011324;28;20476;-76
2022/05/28 06:58:58;;;;;;;12.05;3.90;;;;;;;;;;5009935;28;20060;-76
2022/05/28 07:01:24;;;;;;;9.98;3.00;;;;;;;;;;5016903;28;20026;-76
2022/05/28 07:03:50;;;;;;;6.60;3.10;;;;;;;;;;5012856;28;20033;-76
2022/05/28 07:06:16;;;;;;;15.93;5.18;;;;;;;;;;5012528;28;20652;-76
2022/05/28 07:08:43;;;;;;;6.32;2.90;;;;;;;;;;5011444;28;20200;-76
2022/05/28 07:11:10;;;;;;;10.63;3.50;;;;;;;;;;5006916;28;20037;-76
2022/05/28 07:13:36;;;;;;;11.55;3.72;;;;;;;;;;5017502;28;20038;-76
2022/05/28 07:16:05;;;;;;;9.15;3.15;;;;;;;;;;5016679;28;20296;-76
2022/05/28 07:18:31;;;;;;;9.02;3.30;;;;;;;;;;5012140;28;20030;-75
2022/05/28 07:20:57;;;;;;;9.73;3.55;;;;;;;;;;5008887;28;20033;-77
2022/05/28 07:23:24;;;;;;;9.48;3.53;;;;;;;;;;5015160;28;20065;-75
2022/05/28 07:25:57;;;;;;;11.15;3.83;;;;;;;;;;5013284;28;20040;-75
2022/05/28 07:28:31;;;;;;;8.70;3.53;;;;;;;;;;5011036;28;20381;-76
2022/05/28 07:31:04;;;;;;;11.50;3.50;;;;;;;;;;5010129;28;20029;-76
2022/05/28 07:33:32;;;;;;;8.02;3.10;;;;;;;;;;5012620;28;20030;-77
2022/05/28 07:35:59;;;;;;;8.95;3.08;;;;;;;;;;5016102;28;20029;-77
2022/05/28 07:38:26;;;;;;;6.35;3.05;;;;;;;;;;5008750;28;20045;-76
2022/05/28 07:40:52;;;;;;;8.60;2.90;;;;;;;;;;5011494;28;20037;-76
2022/05/28 07:43:19;;;;;;;8.20;2.70;;;;;;;;;;5011750;28;20041;-76
2022/05/28 07:45:46;;;;;;;7.25;2.63;;;;;;;;;;5013729;28;20073;-76
2022/05/28 07:48:12;;;;;;;6.32;2.65;;;;;;;;;;5024306;28;20072;-77
2022/05/28 07:50:39;;;;;;;5.55;2.33;;;;;;;;;;5026985;28;20033;-75
2022/05/28 07:53:06;;;;;;;7.25;2.80;;;;;;;;;;5009036;28;20033;-76
2022/05/28 07:55:32;;;;;;;9.27;2.65;;;;;;;;;;5013543;28;20053;-76
2022/05/28 07:58:03;;;;;;;8.32;3.25;;;;;;;;;;5024199;28;20026;-77
2022/05/28 08:00:29;;;;;;;8.60;2.80;;;;;;;;;;5009694;28;20034;-77
2022/05/28 08:02:55;;;;;;;7.13;2.75;;;;;;;;;;5004833;28;20116;-77
2022/05/28 08:05:22;;;;;;;4.32;2.33;;;;;;;;;;4999714;28;20108;-76
2022/05/28 08:07:48;;;;;;;4.53;2.38;;;;;;;;;;5000330;28;20341;-76
2022/05/28 08:10:14;;;;;;;6.32;2.30;;;;;;;;;;5007242;28;20052;-77
2022/05/28 08:12:40;;;;;;;7.63;2.50;;;;;;;;;;5011460;28;20141;-78
2022/05/28 08:15:06;;;;;;;6.60;2.40;;;;;;;;;;5013565;28;20542;-77
2022/05/28 08:17:32;;;;;;;5.85;2.60;;;;;;;;;;5005402;28;20038;-77
2022/05/28 08:19:59;;;;;;;5.45;3.03;;;;;;;;;;5004335;28;20541;-76
2022/05/28 08:25:09;;;;;;;3.97;1.95;;;;;;;;;;5004156;28;20095;-75
2022/05/28 08:27:36;;;;;;;5.85;2.30;;;;;;;;;;5003020;28;20590;-77
2022/05/28 08:30:03;;;;;;;4.05;2.33;;;;;;;;;;5003134;28;20471;-76
2022/05/28 08:32:29;;;;;;;4.45;2.10;;;;;;;;;;5005484;28;20030;-76
2022/05/28 08:34:55;;;;;;;5.43;2.03;;;;;;;;;;5002933;28;20484;-76
2022/05/28 08:37:21;;;;;;;4.10;2.17;;;;;;;;;;5003882;28;20053;-76
2022/05/28 08:39:47;;;;;;;3.47;2.17;;;;;;;;;;5003192;28;20026;-76
2022/05/28 08:42:14;;;;;;;4.38;2.25;;;;;;;;;;5003039;28;20092;-78
2022/05/28 08:44:41;;;;;;;4.70;2.20;;;;;;;;;;5002611;28;20030;-77
2022/05/28 08:47:22;;;;;;;6.68;2.20;;;;;;;;;;5005437;28;20435;-77
2022/05/28 08:49:48;;;;;;;2.95;2.03;;;;;;;;;;5005171;28;20022;-77
2022/05/28 08:52:33;;;;;;;4.65;2.70;;;;;;;;;;5005798;28;20604;-77
2022/05/28 08:55:02;;;;;;;4.20;2.10;;;;;;;;;;5004083;28;20034;-77
2022/05/28 08:57:49;;;;;;;5.55;2.33;;;;;;;;;;5009860;28;20030;-76
2022/05/28 09:00:18;;;;;;;5.20;2.35;;;;;;;;;;5016243;28;20034;-78
2022/05/28 09:02:48;;;;;;;2.92;1.80;;;;;;;;;;5020269;28;20032;-78
2022/05/28 09:05:21;;;;;;;4.50;2.60;;;;;;;;;;5016243;28;20499;-76
2022/05/28 09:07:47;;;;;;;6.90;2.28;;;;;;;;;;5013977;28;20658;-77
2022/05/28 09:10:13;;;;;;;5.85;2.42;;;;;;;;;;5013576;28;20060;-77
2022/05/28 09:12:45;;;;;;;4.80;2.20;;;;;;;;;;5006350;28;20369;-76
2022/05/28 09:15:11;;;;;;;4.55;2.05;;;;;;;;;;5006007;28;20044;-77
2022/05/28 09:17:42;;;;;;;4.20;2.13;;;;;;;;;;5005665;28;20029;-77
2022/05/28 09:20:10;;;;;;;7.18;2.10;;;;;;;;;;5021887;28;20033;-78
2022/05/28 09:22:37;;;;;;;5.82;2.10;;;;;;;;;;4997655;28;20044;-77
2022/05/28 09:25:04;;;;;;;6.13;2.47;;;;;;;;;;5011746;28;20060;-77
2022/05/28 09:27:34;;;;;;;6.05;2.22;;;;;;;;;;5014071;28;20052;-78
2022/05/28 09:30:08;;;;;;;5.93;2.15;;;;;;;;;;5009581;28;20014;-77
2022/05/28 09:32:53;;;;;;;4.85;2.25;;;;;;;;;;4999457;28;20405;-76
2022/05/28 09:35:22;;;;;;;4.38;1.98;;;;;;;;;;4998678;28;20089;-76
2022/05/28 09:37:57;;;;;;;8.23;2.47;;;;;;;;;;4996060;28;20120;-77
2022/05/28 09:40:31;;;;;;;5.90;2.13;;;;;;;;;;5000363;28;20490;-77
2022/05/28 09:43:26;;;;;;;5.97;2.60;;;;;;;;;;4996858;28;20100;-76
2022/05/28 09:46:04;;;;;;;7.22;2.70;;;;;;;;;;4998477;28;20125;-76
2022/05/28 09:48:30;;;;;;;8.63;2.95;;;;;;;;;;5007483;28;20019;-77
2022/05/28 09:50:57;;;;;;;5.05;3.03;;;;;;;;;;5003007;28;20021;-76
2022/05/28 09:56:21;;;;;;;3.72;2.38;;;;;;;;;;5001005;28;20044;-77
2022/05/28 09:58:47;;;;;;;6.65;2.17;;;;;;;;;;5000418;28;20026;-77
2022/05/28 10:01:19;;;;;;;5.70;2.47;;;;;;;;;;5002052;28;20061;-77
2022/05/28 10:06:31;;;;;;;6.82;2.50;;;;;;;;;;5004668;28;20048;-78
2022/05/28 10:08:57;;;;;;;4.03;2.13;;;;;;;;;;5001334;28;20034;-77
2022/05/28 10:11:24;;;;;;;4.78;2.30;;;;;;;;;;4999307;28;20079;-77
2022/05/28 10:13:52;;;;;;;4.18;2.33;;;;;;;;;;5000047;28;20030;-77
2022/05/28 10:16:21;;;;;;;6.35;2.63;;;;;;;;;;4999470;28;20377;-76
2022/05/28 10:19:09;;;;;;;5.63;2.22;;;;;;;;;;4997715;28;20052;-77
2022/05/28 10:21:38;;;;;;;5.30;2.17;;;;;;;;;;4995708;28;20038;-74
2022/05/28 10:24:05;;;;;;;5.97;2.20;;;;;;;;;;4994930;28;20026;-75
2022/05/28 10:26:36;;;;;;;4.80;2.30;;;;;;;;;;4998360;28;20037;-76
2022/05/28 10:29:07;;;;;;;1.73;1.60;;;;;;;;;;4994074;28;20230;-74
2022/05/28 10:31:37;;;;;;;4.32;2.00;;;;;;;;;;4997870;28;20431;-76
2022/05/28 10:34:04;;;;;;;4.30;1.95;;;;;;;;;;4995849;28;20670;-76
2022/05/28 10:36:32;;;;;;;6.50;2.45;;;;;;;;;;4998165;28;20084;-77
2022/05/28 10:39:10;;;;;;;7.43;2.25;;;;;;;;;;4997853;28;20048;-76
2022/05/28 10:41:36;;;;;;;7.75;3.15;;;;;;;;;;5003160;28;20030;-75
2022/05/28 10:44:03;;;;;;;2.47;2.15;;;;;;;;;;5001945;28;20033;-75
2022/05/28 10:46:49;;;;;;;4.35;2.70;;;;;;;;;;4996862;28;20056;-76
2022/05/28 10:49:33;;;;;;;2.90;1.80;;;;;;;;;;5010341;28;20038;-76
2022/05/28 10:52:17;;;;;;;3.95;1.92;;;;;;;;;;4999029;28;20036;-75
2022/05/28 10:54:59;;;;;;;3.25;1.88;;;;;;;;;;5005313;28;20057;-76
2022/05/28 10:58:01;;;;;;;4.95;2.25;;;;;;;;;;4999205;28;20698;-75
2022/05/28 11:00:32;;;;;;;4.28;1.90;;;;;;;;;;4996846;28;20041;-78
2022/05/28 11:03:11;;;;;;;4.10;2.10;;;;;;;;;;4998336;28;20046;-76
2022/05/28 11:05:44;;;;;;;8.00;2.58;;;;;;;;;;5003359;28;20044;-76
2022/05/28 11:08:29;;;;;;;9.77;2.97;;;;;;;;;;5010826;28;20439;-76
2022/05/28 11:10:55;;;;;;;6.72;2.58;;;;;;;;;;5003585;28;20127;-76
2022/05/28 11:13:30;;;;;;;6.00;2.75;;;;;;;;;;5002596;28;20488;-75
2022/05/28 11:16:03;;;;;;;3.55;2.15;;;;;;;;;;4998944;28;20026;-75
2022/05/28 11:18:52;;;;;;;4.82;2.00;;;;;;;;;;5004835;28;20048;-77
2022/05/28 11:21:20;;;;;;;4.85;2.20;;;;;;;;;;5002359;28;20030;-74
2022/05/28 11:23:59;;;;;;;6.82;2.40;;;;;;;;;;4998274;28;20030;-77
2022/05/28 11:26:44;;;;;;;4.85;1.90;;;;;;;;;;5001126;28;20396;-76
2022/05/28 11:29:10;;;;;;;;;;;;;;;;;;5000083;28;20530;-76
2022/05/28 11:31:47;;;;;;;5.00;2.17;;;;;;;;;;5007539;28;20351;-76
2022/05/28 11:34:21;;;;;;;4.55;2.10;;;;;;;;;;5007535;28;20038;-76
2022/05/28 11:36:50;;;;;;;5.13;2.60;;;;;;;;;;5003287;28;20036;-76
2022/05/28 11:39:22;;;;;;;2.75;2.10;;;;;;;;;;5005721;28;20030;-77
2022/05/28 11:41:55;;;;;;;4.25;2.05;;;;;;;;;;5002473;28;20040;-77
2022/05/28 11:44:28;;;;;;;5.72;2.00;;;;;;;;;;5002593;28;20045;-78
2022/05/28 11:47:12;;;;;;;5.80;2.17;;;;;;;;;;5004554;28;21401;-77
2022/05/28 11:52:27;;;;;;;2.97;1.80;;;;;;;;;;5002030;28;20045;-77
2022/05/28 11:54:55;;;;;;;2.88;2.08;;;;;;;;;;5002480;28;20285;-75
2022/05/28 11:57:54;;;;;;;3.20;2.10;;;;;;;;;;5002470;28;20042;-76
2022/05/28 12:00:20;;;;;;;4.03;1.80;;;;;;;;;;4990245;28;20081;-77
2022/05/28 12:02:50;;;;;;;3.83;2.00;;;;;;;;;;5003081;28;20411;-76
2022/05/28 12:05:17;;;;;;;4.78;1.92;;;;;;;;;;4998239;28;20034;-76
2022/05/28 12:07:44;;;;;;;2.50;1.77;;;;;;;;;;4996929;28;20547;-75
2022/05/28 12:10:27;;;;;;;4.18;2.05;;;;;;;;;;4998748;28;20578;-76
2022/05/28 12:13:01;;;;;;;4.40;2.10;;;;;;;;;;4998755;28;20492;-76
2022/05/28 12:15:29;;;;;;;3.30;2.10;;;;;;;;;;4996373;28;20280;-77
2022/05/28 12:18:02;;;;;;;4.50;2.10;;;;;;;;;;5001380;28;20061;-76
2022/05/28 12:20:34;;;;;;;2.90;2.20;;;;;;;;;;5002138;28;20083;-75
2022/05/28 12:23:03;;;;;;;2.58;2.30;;;;;;;;;;4999753;28;20030;-77
2022/05/28 12:25:29;;;;;;;2.97;2.03;;;;;;;;;;4994389;28;20029;-76
2022/05/28 12:27:55;;;;;;;5.05;1.80;;;;;;;;;;5003539;28;21182;-78
2022/05/28 12:35:29;;;;;;;5.15;1.90;;;;;;;;;;5051364;28;20079;-79
2022/05/28 12:37:58;;;;;;;2.80;2.05;;;;;;;;;;5051716;28;20030;-79
2022/05/28 12:40:30;;;;;;;6.03;2.00;;;;;;;;;;5045374;28;20666;-79
2022/05/28 12:43:15;;;;;;;3.88;2.05;;;;;;;;;;5045515;28;20086;-78
2022/05/28 12:45:43;;;;;;;3.53;1.95;;;;;;;;;;5042464;28;20037;-79
2022/05/28 12:48:25;;;;;;;2.00;1.80;;;;;;;;;;5040108;28;20029;-80
2022/05/28 12:51:10;;;;;;;4.22;2.00;;;;;;;;;;5040679;28;20532;-79
2022/05/28 12:53:54;;;;;;;4.03;1.90;;;;;;;;;;5044034;28;20036;-78
2022/05/28 12:56:40;;;;;;;5.55;2.17;;;;;;;;;;5042925;28;20037;-79
2022/05/28 12:59:12;;;;;;;6.13;1.90;;;;;;;;;;5042520;28;20066;-80
2022/05/28 13:01:41;;;;;;;6.30;2.00;;;;;;;;;;5042376;28;20139;-79
2022/05/28 13:04:11;;;;;;;4.75;2.40;;;;;;;;;;5042136;28;20039;-81
2022/05/28 13:06:47;;;;;;;3.03;2.05;;;;;;;;;;5039828;28;20081;-78
2022/05/28 13:09:13;;;;;;;2.80;2.13;;;;;;;;;;5044252;28;20056;-77
2022/05/28 13:11:51;;;;;;;5.82;2.45;;;;;;;;;;5043335;28;20478;-78
2022/05/28 13:14:29;;;;;;;3.92;1.98;;;;;;;;;;5042413;28;20486;-77
2022/05/28 13:17:15;;;;;;;5.35;2.10;;;;;;;;;;5040770;28;20493;-78
2022/05/28 13:19:50;;;;;;;6.55;2.13;;;;;;;;;;5043399;28;20035;-78
2022/05/28 13:22:29;;;;;;;4.05;1.90;;;;;;;;;;5042544;28;20060;-77
2022/05/28 13:25:01;;;;;;;4.68;2.75;;;;;;;;;;5032868;28;20032;-78
2022/05/28 13:27:27;;;;;;;4.93;1.95;;;;;;;;;;5035179;28;20025;-77
2022/05/28 13:30:08;;;;;;;4.95;2.42;;;;;;;;;;5034329;28;20033;-80
2022/05/28 13:32:40;;;;;;;2.85;1.85;;;;;;;;;;5039763;28;20526;-79
2022/05/28 13:35:12;;;;;;;3.67;2.00;;;;;;;;;;5039854;28;20319;-79
2022/05/28 13:37:39;;;;;;;5.63;2.30;;;;;;;;;;5038229;28;20120;-78
2022/05/28 13:40:06;;;;;;;4.20;2.03;;;;;;;;;;5038767;28;20057;-78
2022/05/28 13:42:34;;;;;;;3.90;2.35;;;;;;;;;;5042544;28;20028;-80
2022/05/28 13:45:01;;;;;;;3.92;2.08;;;;;;;;;;5033490;28;20398;-77
2022/05/28 13:47:31;;;;;;;5.53;1.95;;;;;;;;;;5038784;28;20025;-80
2022/05/28 13:49:59;;;;;;;4.53;2.30;;;;;;;;;;5039076;28;20075;-80
2022/05/28 13:52:25;;;;;;;4.35;2.00;;;;;;;;;;5037655;28;20036;-79
2022/05/28 13:54:56;;;;;;;2.75;1.98;;;;;;;;;;5036821;28;20029;-78
2022/05/28 13:57:33;;;;;;;4.10;2.15;;;;;;;;;;5041181;28;20029;-78
2022/05/28 14:00:00;;;;;;;5.53;2.25;;;;;;;;;;5040459;28;20039;-81
2022/05/28 14:02:26;;;;;;;4.22;2.33;;;;;;;;;;5039732;28;20033;-80
2022/05/28 14:04:54;;;;;;;6.30;1.98;;;;;;;;;;5037181;28;20029;-81
2022/05/28 14:07:34;;;;;;;4.32;2.20;;;;;;;;;;5039324;28;20083;-81
2022/05/28 14:10:07;;;;;;;4.95;2.40;;;;;;;;;;5041301;28;20063;-80
2022/05/28 14:12:35;;;;;;;3.78;2.20;;;;;;;;;;5041400;28;20021;-79
2022/05/28 14:15:06;;;;;;;2.63;2.10;;;;;;;;;;5041226;28;20040;-77
2022/05/28 14:17:35;;;;;;;3.95;2.38;;;;;;;;;;5038434;28;20040;-78
2022/05/28 14:20:02;;;;;;;3.97;2.10;;;;;;;;;;5019493;28;20202;-81
2022/05/28 14:22:33;;;;;;;4.75;2.80;;;;;;;;;;5018407;28;20028;-77
2022/05/28 14:25:00;;;;;;;4.93;2.22;;;;;;;;;;5038014;28;20044;-79
2022/05/28 14:27:26;;;;;;;3.55;1.90;;;;;;;;;;5036089;28;20767;-79
2022/05/28 14:29:53;;;;;;;3.30;2.13;;;;;;;;;;5039568;28;20044;-79
2022/05/28 14:32:26;;;;;;;4.22;2.30;;;;;;;;;;5037662;28;20025;-78
2022/05/28 14:34:52;;;;;;;4.90;2.35;;;;;;;;;;5041669;28;20430;-79
2022/05/28 14:37:28;;;;;;;5.85;3.00;;;;;;;;;;5040187;28;20036;-77
2022/05/28 14:39:55;;;;;;;5.20;2.20;;;;;;;;;;5037680;28;20497;-76
2022/05/28 14:42:48;;;;;;;4.35;2.00;;;;;;;;;;5040407;28;20623;-80
2022/05/28 14:45:14;;;;;;;4.72;2.30;;;;;;;;;;5039378;28;20048;-77
2022/05/28 14:47:40;;;;;;;3.53;2.03;;;;;;;;;;5039077;28;20055;-78
2022/05/28 14:50:08;;;;;;;5.93;2.67;;;;;;;;;;5033929;28;20567;-75
2022/05/28 14:52:35;;;;;;;4.75;2.17;;;;;;;;;;5036766;28;20159;-75
2022/05/28 14:55:09;;;;;;;4.65;2.15;;;;;;;;;;5038209;28;20028;-74
2022/05/28 14:57:37;;;;;;;5.68;2.22;;;;;;;;;;5038107;28;20459;-76
2022/05/28 15:00:07;;;;;;;4.90;2.15;;;;;;;;;;5032094;28;20064;-79
2022/05/28 15:02:34;;;;;;;5.47;2.25;;;;;;;;;;5034133;28;20035;-82
2022/05/28 15:05:18;;;;;;;4.22;2.05;;;;;;;;;;5034836;28;20051;-79
2022/05/28 15:07:50;;;;;;;4.65;2.40;;;;;;;;;;5035289;28;20718;-79
2022/05/28 15:10:25;;;;;;;4.03;2.40;;;;;;;;;;5036336;28;20441;-78
2022/05/28 15:12:51;;;;;;;5.20;2.20;;;;;;;;;;5035729;28;20073;-78